Time;durP1;ratioP1;P1;durP2;ratioP2;P2;SDS_P1;SDS_P2;PMS_P1;PMS_P2;Temp;Humidity;BMP_temperature;BMP_pressure;BME280_temperature;BME280_humidity;BME280_pressure;Samples;Min_cycle;Max_cycle;Signal;HPM_P1;HPM_P2
2024/03/22 00:00:55;;;;;;;17.77;8.00;;;13.30;78.10;;;;;;5083883;28;20418;-62
2024/03/22 00:03:21;;;;;;;11.60;4.72;;;13.30;78.00;;;;;;5081681;28;20032;-62
2024/03/22 00:05:47;;;;;;;11.32;6.53;;;13.30;77.90;;;;;;5081215;28;20039;-61
2024/03/22 00:08:13;;;;;;;12.85;5.75;;;13.40;78.00;;;;;;5083576;28;20036;-61
2024/03/22 00:10:39;;;;;;;11.43;5.15;;;13.40;78.10;;;;;;5087519;28;20028;-61
2024/03/22 00:13:05;;;;;;;12.40;6.38;;;13.40;78.10;;;;;;5083307;28;20085;-61
2024/03/22 00:15:31;;;;;;;17.85;7.00;;;13.40;78.20;;;;;;5087486;28;20142;-61
2024/03/22 00:17:57;;;;;;;17.05;8.02;;;13.40;78.40;;;;;;5088622;28;20042;-61
2024/03/22 00:20:23;;;;;;;20.40;8.48;;;13.40;78.50;;;;;;5082146;28;20044;-61
2024/03/22 00:22:49;;;;;;;16.92;7.72;;;13.40;78.80;;;;;;5087574;28;20113;-61
2024/03/22 00:25:15;;;;;;;16.42;6.75;;;13.40;78.80;;;;;;5081647;28;20035;-61
2024/03/22 00:27:41;;;;;;;18.83;6.95;;;13.40;78.90;;;;;;5079913;28;20078;-62
2024/03/22 00:30:07;;;;;;;16.63;7.97;;;13.40;79.10;;;;;;5085456;28;20032;-61
2024/03/22 00:32:33;;;;;;;15.60;6.70;;;13.40;79.30;;;;;;5080288;28;20103;-61
2024/03/22 00:34:59;;;;;;;12.60;5.80;;;13.50;79.20;;;;;;5088308;28;20094;-62
2024/03/22 00:37:25;;;;;;;20.75;7.38;;;13.50;79.30;;;;;;5087833;28;20028;-66
2024/03/22 00:39:51;;;;;;;19.00;8.55;;;13.50;79.30;;;;;;5084011;28;20036;-66
2024/03/22 00:42:17;;;;;;;16.48;8.43;;;13.50;79.50;;;;;;5069426;28;20478;-66
2024/03/22 00:44:43;;;;;;;16.63;7.30;;;13.50;79.70;;;;;;5079931;28;20059;-66
2024/03/22 00:47:09;;;;;;;18.65;7.78;;;13.50;80.00;;;;;;5088229;28;20020;-67
2024/03/22 00:49:35;;;;;;;17.50;6.78;;;13.50;80.10;;;;;;5083507;28;20024;-66
2024/03/22 00:52:01;;;;;;;21.42;7.82;;;13.60;80.20;;;;;;5073825;28;20025;-66
2024/03/22 00:54:27;;;;;;;15.70;7.13;;;13.60;80.20;;;;;;5077719;28;20039;-62
2024/03/22 00:56:53;;;;;;;16.90;7.18;;;13.60;80.20;;;;;;5086617;28;20028;-61
2024/03/22 00:59:18;;;;;;;13.73;6.28;;;13.60;80.20;;;;;;5083555;28;20061;-66
2024/03/22 01:01:44;;;;;;;18.52;6.90;;;13.60;80.30;;;;;;5087427;28;20032;-66
2024/03/22 01:04:10;;;;;;;18.92;7.10;;;13.60;80.20;;;;;;5082521;28;20140;-61
2024/03/22 01:06:36;;;;;;;21.92;8.05;;;13.60;80.40;;;;;;5082657;28;20021;-62
2024/03/22 01:09:03;;;;;;;22.98;9.50;;;13.60;80.70;;;;;;5077686;28;20032;-66
2024/03/22 01:11:29;;;;;;;18.27;7.53;;;13.50;80.90;;;;;;5082449;28;20028;-67
2024/03/22 01:13:55;;;;;;;13.73;6.55;;;13.60;80.80;;;;;;5088758;28;20131;-66
2024/03/22 01:16:21;;;;;;;14.10;6.80;;;13.60;80.80;;;;;;5091360;28;20103;-66
2024/03/22 01:18:48;;;;;;;13.32;5.95;;;13.60;80.70;;;;;;5089440;28;20040;-61
2024/03/22 01:21:14;;;;;;;15.07;6.47;;;13.60;80.60;;;;;;5090840;28;20387;-61
2024/03/22 01:23:40;;;;;;;14.07;5.80;;;13.60;80.70;;;;;;5086060;28;20502;-62
2024/03/22 01:26:06;;;;;;;16.05;8.38;;;13.60;80.70;;;;;;5083004;28;20031;-66
2024/03/22 01:28:32;;;;;;;17.10;7.78;;;13.60;80.60;;;;;;5090280;28;20032;-66
2024/03/22 01:30:58;;;;;;;15.15;6.65;;;13.60;80.60;;;;;;5088189;28;20032;-66
2024/03/22 01:33:23;;;;;;;14.98;7.03;;;13.60;80.70;;;;;;5090094;28;20398;-66
2024/03/22 01:35:49;;;;;;;17.92;7.95;;;13.60;80.90;;;;;;5082982;28;20060;-67
2024/03/22 01:38:15;;;;;;;14.90;6.95;;;13.50;81.30;;;;;;5064806;28;20120;-67
2024/03/22 01:40:41;;;;;;;13.38;7.20;;;13.50;81.40;;;;;;5083603;28;20032;-62
2024/03/22 01:43:07;;;;;;;18.73;7.97;;;13.50;81.30;;;;;;5084697;28;20040;-61
2024/03/22 01:45:33;;;;;;;14.25;6.53;;;13.50;81.80;;;;;;5087753;28;20035;-62
2024/03/22 01:48:00;;;;;;;14.20;5.82;;;13.50;81.20;;;;;;5085289;28;20036;-62
2024/03/22 01:50:27;;;;;;;19.25;8.27;;;13.50;81.20;;;;;;5080733;28;20202;-62
2024/03/22 01:52:53;;;;;;;13.57;7.05;;;13.50;81.20;;;;;;5088854;28;20127;-61
2024/03/22 01:55:20;;;;;;;15.23;6.93;;;13.50;81.20;;;;;;5087780;28;20518;-61
2024/03/22 01:57:46;;;;;;;14.73;7.15;;;13.50;81.40;;;;;;5077375;28;20040;-61
2024/03/22 02:00:12;;;;;;;16.75;8.07;;;13.50;81.60;;;;;;5083650;28;20077;-62
2024/03/22 02:02:38;;;;;;;17.80;8.93;;;13.50;81.90;;;;;;5086312;28;20039;-61
2024/03/22 02:05:21;;;;;;;16.35;8.55;;;13.40;81.90;;;;;;5083534;28;20028;-61
2024/03/22 02:07:47;;;;;;;19.40;8.32;;;13.50;82.00;;;;;;5081572;28;20060;-61
2024/03/22 02:10:14;;;;;;;14.77;7.50;;;13.50;81.90;;;;;;5084309;28;20026;-61
2024/03/22 02:12:41;;;;;;;17.58;6.35;;;13.50;81.80;;;;;;5088958;28;20020;-61
2024/03/22 02:15:08;;;;;;;17.95;7.90;;;13.50;81.80;;;;;;5087104;28;20502;-61
2024/03/22 02:17:35;;;;;;;14.43;6.57;;;13.50;81.90;;;;;;5080073;28;20471;-61
2024/03/22 02:20:02;;;;;;;18.85;7.78;;;13.50;81.90;;;;;;5081748;28;20027;-62
2024/03/22 02:22:28;;;;;;;20.35;8.43;;;13.50;81.90;;;;;;5087487;28;20810;-61
2024/03/22 02:24:54;;;;;;;16.50;8.57;;;13.50;81.90;;;;;;5085755;28;20036;-61
2024/03/22 02:27:20;;;;;;;16.15;7.80;;;13.50;81.90;;;;;;5088169;28;20464;-61
2024/03/22 02:29:46;;;;;;;18.25;8.10;;;13.50;81.80;;;;;;5079002;28;20028;-61
2024/03/22 02:32:13;;;;;;;17.95;7.85;;;13.60;81.80;;;;;;5088346;28;20036;-61
2024/03/22 02:34:39;;;;;;;19.75;7.35;;;13.60;81.80;;;;;;5090404;28;20383;-62
2024/03/22 02:37:05;;;;;;;19.73;8.52;;;13.60;81.90;;;;;;5083687;28;20028;-62
2024/03/22 02:39:31;;;;;;;16.58;7.65;;;13.60;82.00;;;;;;5088966;28;20119;-61
2024/03/22 02:41:57;;;;;;;13.70;6.15;;;13.60;82.00;;;;;;5089807;28;20032;-61
2024/03/22 02:44:22;;;;;;;15.15;6.78;;;13.60;82.00;;;;;;5087804;28;20036;-61
2024/03/22 02:46:48;;;;;;;20.63;7.53;;;13.60;82.00;;;;;;5086240;28;20589;-61
2024/03/22 02:49:14;;;;;;;16.17;7.50;;;13.50;82.30;;;;;;5079387;28;20024;-61
2024/03/22 02:51:40;;;;;;;15.85;7.38;;;13.50;82.30;;;;;;5089372;28;20798;-61
2024/03/22 02:54:06;;;;;;;21.85;8.85;;;13.50;82.60;;;;;;5089433;28;20135;-61
2024/03/22 02:56:32;;;;;;;21.15;9.25;;;13.40;82.90;;;;;;5086832;28;20028;-61
2024/03/22 02:58:58;;;;;;;19.45;9.75;;;13.40;82.90;;;;;;5089101;28;20082;-62
2024/03/22 03:01:24;;;;;;;20.83;9.23;;;13.40;83.00;;;;;;5087386;28;20056;-61
2024/03/22 03:03:50;;;;;;;17.90;7.95;;;13.40;83.00;;;;;;5084698;28;20028;-61
2024/03/22 03:06:18;;;;;;;16.23;8.27;;;13.50;82.90;;;;;;5080488;28;20478;-62
2024/03/22 03:08:43;;;;;;;19.42;9.32;;;13.50;83.00;;;;;;5084470;28;20036;-62
2024/03/22 03:11:09;;;;;;;11.75;5.78;;;13.40;83.10;;;;;;5089141;28;20502;-61
2024/03/22 03:13:36;;;;;;;17.88;8.02;;;13.50;83.20;;;;;;5086435;28;20034;-62
2024/03/22 03:16:02;;;;;;;26.52;8.38;;;13.40;83.20;;;;;;5088133;28;20028;-62
2024/03/22 03:18:28;;;;;;;17.65;7.45;;;13.40;83.20;;;;;;5080306;28;20066;-62
2024/03/22 03:20:54;;;;;;;18.88;8.68;;;13.40;83.10;;;;;;5075651;28;20090;-62
2024/03/22 03:23:20;;;;;;;14.60;6.38;;;13.40;83.20;;;;;;5086611;28;20533;-66
2024/03/22 03:25:47;;;;;;;13.48;6.72;;;13.40;83.10;;;;;;5066354;28;20032;-66
2024/03/22 03:28:14;;;;;;;17.52;7.88;;;13.50;83.10;;;;;;5086865;28;20126;-66
2024/03/22 03:30:40;;;;;;;23.50;9.45;;;13.40;83.10;;;;;;5083559;28;20032;-66
2024/03/22 03:33:06;;;;;;;15.85;7.47;;;13.40;83.20;;;;;;5084479;28;20134;-66
2024/03/22 03:35:32;;;;;;;20.13;8.02;;;13.50;83.20;;;;;;5075660;28;20068;-66
2024/03/22 03:37:58;;;;;;;17.60;6.63;;;13.50;83.10;;;;;;5082473;28;20048;-66
2024/03/22 03:40:24;;;;;;;25.17;8.45;;;13.50;83.50;;;;;;5079074;28;20400;-66
2024/03/22 03:42:54;;;;;;;21.70;8.85;;;13.40;83.30;;;;;;5084522;28;20047;-67
2024/03/22 03:45:19;;;;;;;19.23;9.75;;;13.40;83.50;;;;;;5077028;28;20033;-66
2024/03/22 03:47:45;;;;;;;19.90;8.43;;;13.40;83.50;;;;;;5085264;28;20403;-61
2024/03/22 03:50:12;;;;;;;16.17;8.05;;;13.40;83.50;;;;;;5086165;28;20102;-62
2024/03/22 03:52:38;;;;;;;16.20;7.22;;;13.40;83.40;;;;;;5076784;28;20032;-61
2024/03/22 03:55:04;;;;;;;18.60;8.30;;;13.40;83.50;;;;;;5081022;28;20363;-62
2024/03/22 03:57:30;;;;;;;15.48;6.43;;;13.40;83.60;;;;;;5080504;28;20371;-62
2024/03/22 03:59:56;;;;;;;19.35;8.07;;;13.40;83.50;;;;;;5085141;28;20038;-62
2024/03/22 04:02:22;;;;;;;15.02;7.03;;;13.40;83.70;;;;;;5083860;28;20020;-61
2024/03/22 04:04:48;;;;;;;18.17;7.85;;;13.40;83.70;;;;;;5087155;28;20355;-62
2024/03/22 04:07:13;;;;;;;19.95;7.95;;;13.30;83.80;;;;;;5082805;28;20323;-61
2024/03/22 04:09:39;;;;;;;21.92;7.05;;;13.30;83.80;;;;;;5073048;28;20032;-62
2024/03/22 04:12:05;;;;;;;18.55;8.45;;;13.30;83.80;;;;;;5083276;28;20028;-62
2024/03/22 04:14:31;;;;;;;14.98;7.13;;;13.40;83.80;;;;;;5078959;28;20032;-62
2024/03/22 04:16:57;;;;;;;21.20;8.88;;;13.40;83.80;;;;;;5082201;28;20062;-61
2024/03/22 04:19:23;;;;;;;13.93;6.90;;;13.40;83.80;;;;;;5076095;28;20033;-61
2024/03/22 04:21:50;;;;;;;15.07;7.57;;;13.40;83.80;;;;;;5084114;28;20060;-61
2024/03/22 04:24:16;;;;;;;16.73;7.30;;;13.40;83.80;;;;;;5080405;28;20040;-61
2024/03/22 04:26:42;;;;;;;17.48;7.20;;;13.40;83.80;;;;;;5078965;28;20039;-61
2024/03/22 04:29:08;;;;;;;11.65;5.75;;;13.40;83.60;;;;;;5084200;28;20478;-61
2024/03/22 04:31:34;;;;;;;17.05;7.00;;;13.50;83.50;;;;;;5079934;28;20032;-61
2024/03/22 04:34:00;;;;;;;18.85;7.82;;;13.50;83.60;;;;;;5081528;28;20274;-62
2024/03/22 04:36:26;;;;;;;24.50;8.98;;;13.40;83.70;;;;;;5082298;28;20082;-61
2024/03/22 04:38:52;;;;;;;14.07;6.85;;;13.40;84.10;;;;;;5085802;28;20031;-66
2024/03/22 04:41:18;;;;;;;17.00;8.13;;;13.40;84.10;;;;;;5082375;28;20023;-66
2024/03/22 04:43:44;;;;;;;19.45;9.23;;;13.40;84.10;;;;;;5071347;28;20074;-61
2024/03/22 04:46:10;;;;;;;22.55;9.45;;;13.30;84.20;;;;;;5085580;28;20418;-61
2024/03/22 04:48:36;;;;;;;17.77;8.23;;;13.30;84.40;;;;;;5074201;28;20025;-61
2024/03/22 04:51:02;;;;;;;17.52;8.27;;;13.30;84.70;;;;;;5079303;28;20478;-62
2024/03/22 04:53:28;;;;;;;25.45;8.98;;;13.30;84.70;;;;;;5085098;28;20032;-61
2024/03/22 04:55:54;;;;;;;21.27;8.25;;;13.30;84.70;;;;;;5079491;28;20039;-61
2024/03/22 04:58:21;;;;;;;21.38;9.25;;;13.30;84.70;;;;;;5085553;28;20032;-62
2024/03/22 05:00:49;;;;;;;16.58;7.70;;;13.20;84.60;;;;;;5086310;28;20035;-61
2024/03/22 05:03:16;;;;;;;18.48;9.13;;;13.30;84.70;;;;;;5081761;28;20231;-61
2024/03/22 05:05:43;;;;;;;16.95;6.75;;;13.20;84.40;;;;;;5082528;28;20043;-61
2024/03/22 05:08:09;;;;;;;16.63;8.85;;;13.20;84.40;;;;;;5077394;28;20054;-61
2024/03/22 05:10:35;;;;;;;20.50;8.13;;;13.20;84.40;;;;;;5088094;28;20035;-61
2024/03/22 05:13:01;;;;;;;19.65;9.13;;;13.20;84.40;;;;;;5081845;28;20017;-61
2024/03/22 05:15:28;;;;;;;18.30;7.28;;;13.20;84.40;;;;;;5084131;28;20028;-61
2024/03/22 05:17:56;;;;;;;22.15;8.85;;;13.10;84.30;;;;;;5084796;28;20012;-61
2024/03/22 05:20:22;;;;;;;21.95;9.27;;;13.10;84.20;;;;;;5080110;28;20020;-61
2024/03/22 05:22:48;;;;;;;16.52;7.32;;;13.10;84.20;;;;;;5082516;28;20039;-61
2024/03/22 05:25:15;;;;;;;15.77;6.63;;;13.00;84.30;;;;;;5080165;28;20028;-61
2024/03/22 05:27:42;;;;;;;15.50;7.38;;;13.00;84.20;;;;;;5088065;28;20099;-61
2024/03/22 05:30:13;;;;;;;15.18;6.13;;;13.00;84.00;;;;;;5091587;28;20390;-61
2024/03/22 05:32:40;;;;;;;18.35;8.80;;;13.10;83.90;;;;;;5085912;28;20549;-61
2024/03/22 05:35:06;;;;;;;17.33;7.15;;;13.10;83.70;;;;;;5080131;28;20035;-61
2024/03/22 05:37:33;;;;;;;15.82;7.03;;;13.00;83.50;;;;;;5086804;28;20032;-61
2024/03/22 05:40:00;;;;;;;13.93;7.47;;;13.00;83.50;;;;;;5080900;28;20025;-61
2024/03/22 05:42:26;;;;;;;15.98;6.80;;;13.00;83.50;;;;;;5089891;28;20032;-61
2024/03/22 05:44:53;;;;;;;15.82;7.40;;;12.90;83.50;;;;;;5089662;28;20024;-61
2024/03/22 05:47:19;;;;;;;18.75;8.00;;;12.90;83.60;;;;;;5088031;28;20024;-61
2024/03/22 05:49:45;;;;;;;17.50;7.18;;;12.90;83.60;;;;;;5085570;28;20614;-61
2024/03/22 05:52:12;;;;;;;17.25;7.40;;;12.90;83.60;;;;;;5080788;28;20028;-61
2024/03/22 05:54:38;;;;;;;15.68;7.05;;;12.80;83.60;;;;;;5079665;28;20554;-61
2024/03/22 05:57:05;;;;;;;14.13;6.18;;;12.80;83.60;;;;;;5089227;28;20032;-61
2024/03/22 05:59:31;;;;;;;13.68;6.15;;;12.90;83.50;;;;;;5081166;28;20040;-61
2024/03/22 06:01:57;;;;;;;8.90;4.75;;;12.90;83.40;;;;;;5080122;28;20047;-62
2024/03/22 06:04:23;;;;;;;14.98;5.90;;;12.90;83.30;;;;;;5077451;28;20027;-62
2024/03/22 06:06:49;;;;;;;13.13;5.70;;;12.90;83.00;;;;;;5090209;28;20491;-61
2024/03/22 06:09:23;;;;;;;15.48;6.47;;;12.90;82.80;;;;;;5079398;28;20105;-61
2024/03/22 06:11:50;;;;;;;14.30;5.75;;;12.90;82.70;;;;;;5088486;28;20047;-61
2024/03/22 06:14:15;;;;;;;13.82;6.40;;;12.90;82.50;;;;;;5081477;28;20043;-61
2024/03/22 06:16:41;;;;;;;13.02;6.70;;;12.90;82.40;;;;;;5085304;28;20036;-61
2024/03/22 06:19:06;;;;;;;15.73;6.72;;;12.80;82.40;;;;;;5088546;28;20034;-62
2024/03/22 06:21:32;;;;;;;16.90;6.85;;;12.80;82.10;;;;;;5087244;28;20108;-61
2024/03/22 06:23:58;;;;;;;16.70;6.95;;;12.80;82.20;;;;;;5084724;28;20257;-61
2024/03/22 06:26:23;;;;;;;18.48;6.70;;;12.70;82.20;;;;;;5081649;28;20047;-67
2024/03/22 06:28:49;;;;;;;10.55;5.53;;;12.70;82.10;;;;;;5087409;28;20116;-66
2024/03/22 06:31:15;;;;;;;14.80;6.97;;;12.80;82.20;;;;;;5079832;28;20502;-62
2024/03/22 06:33:41;;;;;;;14.85;6.15;;;12.80;81.90;;;;;;5083295;28;20483;-65
2024/03/22 06:36:06;;;;;;;12.50;5.28;;;12.80;81.70;;;;;;5082484;28;20077;-61
2024/03/22 06:38:32;;;;;;;17.15;6.28;;;12.80;81.80;;;;;;5073858;28;20119;-61
2024/03/22 06:40:59;;;;;;;11.10;5.85;;;12.80;81.80;;;;;;5071917;28;20040;-65
2024/03/22 06:43:25;;;;;;;12.43;6.13;;;12.90;82.40;;;;;;5087735;28;20040;-66
2024/03/22 06:45:51;;;;;;;16.13;7.15;;;12.90;81.40;;;;;;5070554;28;20498;-66
2024/03/22 06:48:16;;;;;;;12.10;6.03;;;12.80;81.50;;;;;;5089702;28;20032;-66
2024/03/22 06:50:42;;;;;;;13.27;5.47;;;12.80;81.50;;;;;;5086834;28;20032;-61
2024/03/22 06:53:09;;;;;;;10.80;5.03;;;12.80;81.50;;;;;;5088540;28;20025;-62
2024/03/22 06:55:35;;;;;;;12.95;5.85;;;12.90;81.40;;;;;;5080702;28;20041;-61
2024/03/22 06:58:01;;;;;;;15.43;6.68;;;12.80;81.10;;;;;;5087093;28;20025;-61
2024/03/22 07:00:27;;;;;;;17.42;7.55;;;12.90;81.20;;;;;;5083378;28;20029;-61
2024/03/22 07:02:52;;;;;;;10.88;5.18;;;12.80;81.10;;;;;;5086443;28;20475;-62
2024/03/22 07:05:18;;;;;;;14.85;5.40;;;12.80;81.10;;;;;;5085959;28;20036;-61
2024/03/22 07:07:44;;;;;;;14.25;5.57;;;12.80;81.10;;;;;;5085084;28;20304;-62
2024/03/22 07:10:09;;;;;;;11.90;5.50;;;12.80;81.10;;;;;;5076329;28;20129;-61
2024/03/22 07:12:35;;;;;;;13.95;6.07;;;12.90;81.00;;;;;;5085227;28;20376;-62
2024/03/22 07:15:02;;;;;;;13.65;5.43;;;12.90;80.90;;;;;;5089686;28;20028;-61
2024/03/22 07:17:28;;;;;;;16.42;5.55;;;12.90;80.90;;;;;;5083361;28;20082;-61
2024/03/22 07:19:54;;;;;;;15.85;7.07;;;12.90;80.90;;;;;;5086885;28;20056;-65
2024/03/22 07:22:21;;;;;;;14.57;5.53;;;12.90;80.90;;;;;;5087224;28;20016;-66
2024/03/22 07:24:51;;;;;;;15.98;5.57;;;12.90;80.80;;;;;;5078249;28;20072;-66
2024/03/22 07:27:16;;;;;;;11.57;5.10;;;13.00;80.70;;;;;;5085931;28;20046;-65
2024/03/22 07:29:42;;;;;;;14.57;6.63;;;13.10;80.70;;;;;;5077532;28;20016;-66
2024/03/22 07:32:08;;;;;;;12.77;5.60;;;13.10;80.50;;;;;;5088160;28;20024;-65
2024/03/22 07:34:33;;;;;;;11.20;5.15;;;13.20;80.30;;;;;;5084437;28;20024;-66
2024/03/22 07:36:59;;;;;;;12.77;5.63;;;13.30;80.10;;;;;;5084281;28;20029;-66
2024/03/22 07:39:25;;;;;;;10.93;4.95;;;13.30;80.00;;;;;;5082596;28;20110;-65
2024/03/22 07:41:50;;;;;;;10.18;5.13;;;13.30;80.00;;;;;;5080336;28;20103;-66
2024/03/22 07:44:28;;;;;;;12.80;5.05;;;13.30;80.00;;;;;;5086986;28;20123;-65
2024/03/22 07:46:53;;;;;;;10.27;5.10;;;13.20;79.90;;;;;;5083410;28;20046;-66
2024/03/22 07:49:19;;;;;;;12.52;6.28;;;13.20;80.00;;;;;;5087278;28;20025;-66
2024/03/22 07:51:45;;;;;;;9.95;5.45;;;13.20;79.80;;;;;;5077785;28;20082;-65
2024/03/22 07:54:10;;;;;;;12.10;5.18;;;13.20;79.90;;;;;;5077669;28;20044;-66
2024/03/22 07:56:36;;;;;;;12.25;5.20;;;13.20;80.00;;;;;;5081141;28;20036;-66
2024/03/22 07:59:02;;;;;;;10.45;5.55;;;13.20;80.20;;;;;;5078262;28;20078;-66
2024/03/22 08:01:27;;;;;;;12.77;4.70;;;13.20;80.00;;;;;;5082947;28;20487;-66
2024/03/22 08:03:53;;;;;;;12.38;4.85;;;13.20;80.00;;;;;;5081292;28;20122;-66
2024/03/22 08:06:19;;;;;;;11.43;4.72;;;13.20;80.00;;;;;;5083527;28;20474;-68
2024/03/22 08:08:45;;;;;;;12.50;5.25;;;13.10;80.10;;;;;;5081936;28;20035;-63
2024/03/22 08:11:11;;;;;;;8.82;4.18;;;13.20;80.10;;;;;;5074877;28;20028;-63
2024/03/22 08:13:37;;;;;;;11.38;5.43;;;13.20;80.00;;;;;;5080365;28;20455;-64
2024/03/22 08:16:03;;;;;;;10.35;4.18;;;13.20;80.00;;;;;;5063848;28;20032;-64
2024/03/22 08:18:29;;;;;;;11.60;4.22;;;13.20;79.90;;;;;;5079777;28;20094;-64
2024/03/22 08:20:54;;;;;;;11.07;4.63;;;13.20;79.90;;;;;;5081157;28;20027;-65
2024/03/22 08:23:22;;;;;;;10.68;4.45;;;13.20;79.90;;;;;;5074428;28;20079;-66
2024/03/22 08:25:48;;;;;;;13.00;5.95;;;13.20;79.90;;;;;;5078040;28;20119;-68
2024/03/22 08:28:14;;;;;;;12.65;5.38;;;13.20;79.80;;;;;;5078679;28;20092;-67
2024/03/22 08:30:39;;;;;;;13.63;6.82;;;13.20;80.00;;;;;;5083931;28;20135;-68
2024/03/22 08:33:05;;;;;;;11.77;5.07;;;13.10;79.90;;;;;;5083641;28;20032;-68
2024/03/22 08:35:30;;;;;;;10.63;4.90;;;13.20;80.10;;;;;;5083854;28;20120;-68
2024/03/22 08:37:57;;;;;;;11.60;5.97;;;13.10;80.00;;;;;;5075912;28;20097;-63
2024/03/22 08:40:23;;;;;;;11.27;5.03;;;13.20;80.00;;;;;;5079673;28;20029;-64
2024/03/22 08:42:48;;;;;;;10.77;5.22;;;13.20;79.90;;;;;;5082620;28;20039;-64
2024/03/22 08:45:16;;;;;;;12.35;5.43;;;13.20;79.80;;;;;;5068142;28;20035;-64
2024/03/22 08:47:42;;;;;;;14.52;7.00;;;13.30;79.60;;;;;;5079779;28;20391;-64
2024/03/22 08:50:08;;;;;;;13.23;6.72;;;13.20;79.60;;;;;;5086913;28;20031;-64
2024/03/22 08:52:35;;;;;;;11.85;5.18;;;13.20;79.80;;;;;;5075516;28;20477;-65
2024/03/22 08:55:01;;;;;;;11.25;5.70;;;13.20;79.80;;;;;;5084031;28;20479;-63
2024/03/22 08:57:26;;;;;;;12.95;6.45;;;13.20;79.90;;;;;;5088945;28;20028;-63
2024/03/22 08:59:52;;;;;;;16.52;7.20;;;13.20;79.70;;;;;;5086304;28;20105;-63
2024/03/22 09:02:17;;;;;;;15.75;7.15;;;13.10;79.80;;;;;;5089945;28;20528;-65
2024/03/22 09:04:43;;;;;;;14.15;5.97;;;13.20;80.00;;;;;;5075482;28;20089;-66
2024/03/22 09:07:09;;;;;;;14.80;6.15;;;13.20;80.20;;;;;;5089536;28;20039;-63
2024/03/22 09:09:34;;;;;;;19.38;7.68;;;13.10;80.30;;;;;;5077421;28;20328;-64
2024/03/22 09:12:00;;;;;;;19.08;6.93;;;13.10;80.60;;;;;;5088040;28;20020;-64
2024/03/22 09:14:26;;;;;;;17.30;8.30;;;13.10;81.00;;;;;;5083374;28;20109;-64
2024/03/22 09:16:52;;;;;;;16.08;6.15;;;13.10;81.30;;;;;;5078860;28;20050;-64
2024/03/22 09:19:18;;;;;;;15.73;7.97;;;13.00;81.40;;;;;;5085437;28;20313;-64
2024/03/22 09:21:43;;;;;;;16.83;8.07;;;13.00;81.60;;;;;;5085319;28;20028;-64
2024/03/22 09:24:09;;;;;;;12.77;6.63;;;13.00;81.90;;;;;;5087574;28;20048;-64
2024/03/22 09:26:35;;;;;;;23.83;7.70;;;12.90;81.90;;;;;;5083177;28;20387;-64
2024/03/22 09:29:01;;;;;;;15.82;6.97;;;12.90;82.00;;;;;;5082112;28;20368;-64
2024/03/22 09:31:27;;;;;;;21.83;7.68;;;12.90;81.90;;;;;;5078138;28;20031;-64
2024/03/22 09:33:53;;;;;;;17.80;8.00;;;13.00;81.90;;;;;;5086440;28;20070;-63
2024/03/22 09:36:18;;;;;;;19.23;6.57;;;13.00;82.00;;;;;;5084930;28;20028;-64
2024/03/22 09:38:44;;;;;;;19.80;6.88;;;13.00;82.00;;;;;;5079353;28;20115;-64
2024/03/22 09:41:10;;;;;;;19.17;8.82;;;13.00;82.00;;;;;;5081002;28;20032;-68
2024/03/22 09:43:38;;;;;;;18.63;6.85;;;12.90;82.20;;;;;;5077674;28;20089;-68
2024/03/22 09:46:03;;;;;;;16.95;7.80;;;12.90;82.30;;;;;;5082173;28;20360;-67
2024/03/22 09:48:31;;;;;;;17.98;7.30;;;12.90;82.40;;;;;;5085547;28;20058;-68
2024/03/22 09:50:57;;;;;;;18.42;7.05;;;12.90;82.50;;;;;;5079647;28;20343;-68
2024/03/22 09:53:25;;;;;;;14.15;6.35;;;12.90;82.40;;;;;;5077159;28;20044;-67
2024/03/22 09:55:52;;;;;;;15.45;7.45;;;13.00;82.30;;;;;;5055534;28;20047;-68
2024/03/22 09:58:18;;;;;;;18.42;8.63;;;12.90;82.30;;;;;;5058188;28;20032;-68
2024/03/22 10:00:43;;;;;;;19.70;8.00;;;12.90;82.30;;;;;;5081495;28;20089;-68
2024/03/22 10:03:10;;;;;;;16.27;7.00;;;12.90;82.20;;;;;;5081048;28;20125;-68
2024/03/22 10:05:36;;;;;;;17.92;6.88;;;12.90;82.20;;;;;;5086136;28;20058;-68
2024/03/22 10:08:03;;;;;;;18.00;7.85;;;13.00;82.20;;;;;;5076479;28;20028;-68
2024/03/22 10:10:31;;;;;;;16.65;7.80;;;13.00;82.00;;;;;;5079174;28;20388;-64
2024/03/22 10:12:56;;;;;;;20.83;8.77;;;13.00;81.80;;;;;;5072710;28;20458;-64
2024/03/22 10:15:24;;;;;;;16.33;7.05;;;13.00;82.00;;;;;;5064318;28;20082;-64
2024/03/22 10:17:49;;;;;;;20.23;8.15;;;13.00;82.10;;;;;;5073512;28;20020;-64
2024/03/22 10:20:15;;;;;;;20.98;8.68;;;13.00;82.30;;;;;;5077723;28;20043;-64
2024/03/22 10:22:49;;;;;;;15.38;5.82;;;13.00;82.60;;;;;;5076803;28;20036;-64
2024/03/22 10:25:15;;;;;;;16.83;7.15;;;13.00;82.80;;;;;;5083751;28;20058;-64
2024/03/22 10:27:41;;;;;;;19.85;7.65;;;13.00;83.20;;;;;;5070238;28;20036;-68
2024/03/22 10:30:09;;;;;;;11.40;5.43;;;13.00;83.50;;;;;;5079097;28;20103;-67
2024/03/22 10:32:38;;;;;;;16.52;7.65;;;13.00;83.60;;;;;;5066662;28;20052;-67
2024/03/22 10:35:06;;;;;;;12.93;5.85;;;13.00;83.80;;;;;;5078784;28;20488;-67
2024/03/22 10:37:32;;;;;;;17.40;6.00;;;13.00;83.80;;;;;;5074726;28;20040;-67
2024/03/22 10:40:01;;;;;;;18.92;7.57;;;13.00;83.80;;;;;;5072574;28;20542;-67
2024/03/22 10:42:26;;;;;;;15.90;5.53;;;13.00;83.80;;;;;;5074878;28;20170;-67
2024/03/22 10:44:52;;;;;;;7.47;4.47;;;13.00;84.00;;;;;;5085080;28;20594;-68
2024/03/22 10:47:20;;;;;;;13.48;6.18;;;13.10;84.00;;;;;;5088257;28;20036;-68
2024/03/22 10:49:48;;;;;;;14.35;5.45;;;13.10;83.90;;;;;;5072705;28;20066;-67
2024/03/22 10:52:14;;;;;;;11.98;5.35;;;13.10;83.90;;;;;;5076319;28;20824;-68
2024/03/22 10:54:45;;;;;;;11.43;5.70;;;13.10;84.10;;;;;;5075367;28;20032;-67
2024/03/22 10:57:14;;;;;;;11.23;4.85;;;13.00;84.60;;;;;;5071514;28;20620;-68
2024/03/22 10:59:41;;;;;;;8.57;4.22;;;12.90;84.80;;;;;;5073703;28;20456;-67
2024/03/22 11:02:10;;;;;;;13.25;5.25;;;12.90;84.80;;;;;;5073266;28;20089;-68
2024/03/22 11:04:35;;;;;;;9.68;4.35;;;12.90;84.90;;;;;;5081810;28;20056;-68
2024/03/22 11:07:03;;;;;;;11.30;4.47;;;12.90;84.90;;;;;;5075262;28;20043;-68
2024/03/22 11:09:29;;;;;;;9.32;4.03;;;13.00;85.00;;;;;;5073876;28;20255;-67
2024/03/22 11:12:00;;;;;;;13.35;5.85;;;12.90;85.00;;;;;;5074852;28;20016;-68
2024/03/22 11:14:25;;;;;;;9.82;3.90;;;12.90;85.00;;;;;;5084001;28;20036;-68
2024/03/22 11:16:52;;;;;;;8.68;3.95;;;12.90;85.10;;;;;;5083831;28;20035;-68
2024/03/22 11:19:18;;;;;;;7.72;4.30;;;12.90;85.20;;;;;;5086732;28;20060;-68
2024/03/22 11:21:44;;;;;;;13.98;5.38;;;12.80;85.30;;;;;;5082877;28;20131;-68
2024/03/22 11:24:11;;;;;;;8.23;3.58;;;12.90;85.40;;;;;;5081480;28;20059;-68
2024/03/22 11:26:37;;;;;;;9.48;4.38;;;12.90;85.20;;;;;;5079854;28;20059;-68
2024/03/22 11:29:03;;;;;;;10.60;3.75;;;12.90;85.30;;;;;;5080162;28;20019;-64
2024/03/22 11:31:29;;;;;;;5.63;3.47;;;12.90;85.40;;;;;;5075390;28;20038;-64
2024/03/22 11:33:55;;;;;;;8.10;4.07;;;12.80;85.60;;;;;;5063784;28;20044;-64
2024/03/22 11:36:21;;;;;;;9.30;4.03;;;12.80;86.00;;;;;;5072844;28;20037;-64
2024/03/22 11:38:50;;;;;;;5.50;2.83;;;12.70;86.30;;;;;;5071262;28;20063;-64
2024/03/22 11:41:25;;;;;;;7.30;4.45;;;12.70;86.50;;;;;;5053945;28;20419;-64
2024/03/22 11:43:51;;;;;;;6.50;2.55;;;12.70;86.70;;;;;;5072637;28;20024;-64
2024/03/22 11:46:18;;;;;;;7.32;3.78;;;12.70;86.80;;;;;;5075663;28;20036;-64
2024/03/22 11:48:44;;;;;;;8.25;3.20;;;12.70;86.80;;;;;;5074870;28;20098;-64
2024/03/22 11:51:10;;;;;;;5.30;2.85;;;12.70;87.40;;;;;;5069044;28;20025;-64
2024/03/22 11:53:36;;;;;;;5.20;2.50;;;12.70;86.80;;;;;;5066630;28;20025;-64
2024/03/22 11:56:04;;;;;;;3.22;2.35;;;12.80;86.70;;;;;;5082039;28;20078;-64
2024/03/22 11:58:30;;;;;;;5.95;2.90;;;12.90;86.40;;;;;;5070066;28;20054;-63
2024/03/22 12:00:57;;;;;;;3.05;1.75;;;12.90;86.40;;;;;;5072394;28;20032;-64
2024/03/22 12:03:23;;;;;;;6.07;2.97;;;12.90;86.30;;;;;;5076479;28;20495;-65
2024/03/22 12:05:50;;;;;;;4.55;1.88;;;12.90;87.10;;;;;;5078966;28;20032;-64
2024/03/22 12:08:19;;;;;;;2.92;1.77;;;12.90;86.50;;;;;;5078706;28;20394;-64
2024/03/22 12:10:44;;;;;;;3.95;2.13;;;12.90;86.60;;;;;;5083302;28;20029;-65
2024/03/22 12:13:10;;;;;;;4.30;2.30;;;12.90;86.70;;;;;;5079834;28;20082;-67
2024/03/22 12:15:36;;;;;;;4.03;2.20;;;12.90;86.80;;;;;;5088738;28;20036;-66
2024/03/22 12:18:02;;;;;;;4.72;2.10;;;12.90;86.70;;;;;;5075138;28;20406;-67
2024/03/22 12:20:28;;;;;;;2.55;1.55;;;12.90;86.60;;;;;;5066869;28;20048;-67
2024/03/22 12:22:54;;;;;;;3.53;2.15;;;12.90;86.60;;;;;;5080904;28;20055;-67
2024/03/22 12:25:20;;;;;;;5.82;1.83;;;12.90;86.80;;;;;;5067667;28;20056;-67
2024/03/22 12:27:47;;;;;;;1.65;1.55;;;12.80;87.00;;;;;;5080946;28;20009;-67
2024/03/22 12:30:13;;;;;;;3.63;1.85;;;12.80;87.20;;;;;;5070013;28;20023;-67
2024/03/22 12:32:41;;;;;;;3.40;1.63;;;12.90;87.20;;;;;;5080340;28;20020;-64